Time;durP1;ratioP1;P1;durP2;ratioP2;P2;SDS_P1;SDS_P2;PMS_P1;PMS_P2;Temp;Humidity;BMP_temperature;BMP_pressure;BME280_temperature;BME280_humidity;BME280_pressure;Samples;Min_cycle;Max_cycle;Signal;HPM_P1;HPM_P2
2023/10/24 00:00:39;;;;;;;24.73;16.65;;;;;;;;;;5078259;28;20040;-83
2023/10/24 00:03:05;;;;;;;21.00;17.17;;;;;;;;;;5082159;28;20045;-84
2023/10/24 00:05:31;;;;;;;22.95;16.95;;;;;;;;;;5082044;28;20057;-84
2023/10/24 00:07:57;;;;;;;23.88;16.80;;;;;;;;;;5064673;28;20048;-84
2023/10/24 00:10:24;;;;;;;23.25;16.95;;;;;;;;;;5081128;28;20047;-84
2023/10/24 00:12:50;;;;;;;24.48;16.60;;;;;;;;;;5082147;28;20041;-84
2023/10/24 00:15:16;;;;;;;25.60;17.10;;;;;;;;;;5082537;28;20036;-85
2023/10/24 00:17:42;;;;;;;24.50;16.75;;;;;;;;;;5082416;28;20037;-84
2023/10/24 00:20:09;;;;;;;28.45;17.10;;;;;;;;;;5082999;28;20036;-84
2023/10/24 00:22:35;;;;;;;25.90;17.25;;;;;;;;;;5083297;28;20041;-85
2023/10/24 00:25:01;;;;;;;26.83;17.50;;;;;;;;;;5083013;28;20054;-85
2023/10/24 00:27:27;;;;;;;26.08;17.45;;;;;;;;;;5063564;28;20100;-83
2023/10/24 00:29:53;;;;;;;27.00;17.35;;;;;;;;;;5063018;28;20425;-84
2023/10/24 00:32:20;;;;;;;23.95;16.52;;;;;;;;;;5063613;28;20044;-83
2023/10/24 00:34:46;;;;;;;26.40;17.83;;;;;;;;;;5046410;28;20047;-85
2023/10/24 00:37:12;;;;;;;26.17;18.17;;;;;;;;;;5062435;28;20044;-85
2023/10/24 00:39:38;;;;;;;32.33;18.23;;;;;;;;;;5075470;28;20382;-85
2023/10/24 00:42:05;;;;;;;28.23;17.75;;;;;;;;;;5076000;28;20047;-87
2023/10/24 00:44:32;;;;;;;26.95;17.63;;;;;;;;;;5076983;28;20051;-86
2023/10/24 00:46:58;;;;;;;27.30;16.98;;;;;;;;;;5059350;28;20513;-87
2023/10/24 00:49:25;;;;;;;26.50;17.40;;;;;;;;;;5075866;28;20036;-87
2023/10/24 00:51:52;;;;;;;28.23;18.17;;;;;;;;;;5075419;28;20041;-86
2023/10/24 00:54:18;;;;;;;23.10;17.40;;;;;;;;;;5065850;28;20079;-85
2023/10/24 00:56:46;;;;;;;25.00;17.27;;;;;;;;;;5058147;28;20516;-85
2023/10/24 00:59:13;;;;;;;24.27;16.30;;;;;;;;;;5077294;28;20052;-85
2023/10/24 01:01:39;;;;;;;29.30;17.63;;;;;;;;;;5054728;28;20051;-86
2023/10/24 01:04:06;;;;;;;27.60;18.00;;;;;;;;;;5060313;28;20048;-85
2023/10/24 01:06:32;;;;;;;31.13;18.27;;;;;;;;;;5071911;28;20047;-86
2023/10/24 01:08:58;;;;;;;26.38;17.52;;;;;;;;;;5076984;28;20054;-86
2023/10/24 01:11:49;;;;;;;31.02;18.42;;;;;;;;;;5124594;27;20509;-85
2023/10/24 01:14:15;;;;;;;30.40;19.60;;;;;;;;;;5093315;28;20048;-84
2023/10/24 01:16:45;;;;;;;27.83;18.88;;;;;;;;;;5057759;28;20044;-85
2023/10/24 01:19:14;;;;;;;30.25;18.73;;;;;;;;;;5073967;28;20037;-83
2023/10/24 01:21:47;;;;;;;28.77;18.17;;;;;;;;;;5069367;28;20091;-84
2023/10/24 01:24:17;;;;;;;32.30;18.75;;;;;;;;;;5073671;28;20044;-83
2023/10/24 01:26:43;;;;;;;32.00;18.63;;;;;;;;;;5089294;28;20055;-83
2023/10/24 01:43:05;;;;;;;28.48;17.25;;;;;;;;;;5084264;28;20081;-83
2023/10/24 01:45:31;;;;;;;26.17;17.20;;;;;;;;;;5073788;28;20040;-83
2023/10/24 01:47:58;;;;;;;27.55;17.05;;;;;;;;;;5077085;28;20556;-85
2023/10/24 01:50:24;;;;;;;30.45;17.40;;;;;;;;;;5077341;28;20207;-82
2023/10/24 01:52:50;;;;;;;25.40;17.55;;;;;;;;;;5074683;28;20128;-83
2023/10/24 01:55:16;;;;;;;29.67;17.23;;;;;;;;;;5072428;28;20041;-83
2023/10/24 01:57:42;;;;;;;25.35;16.25;;;;;;;;;;5073242;28;20049;-82
2023/10/24 02:00:08;;;;;;;28.65;16.27;;;;;;;;;;5073780;28;20076;-83
2023/10/24 02:02:34;;;;;;;27.80;16.15;;;;;;;;;;5082982;28;20087;-83
2023/10/24 02:05:00;;;;;;;26.42;16.65;;;;;;;;;;5073198;28;20071;-82
2023/10/24 02:07:29;;;;;;;26.33;15.90;;;;;;;;;;5086299;28;20056;-85
2023/10/24 02:09:55;;;;;;;24.85;15.75;;;;;;;;;;5076174;28;20084;-83
2023/10/24 02:12:24;;;;;;;22.60;14.90;;;;;;;;;;5095092;28;20041;-85
2023/10/24 02:14:50;;;;;;;26.20;16.05;;;;;;;;;;5069932;28;20506;-84
2023/10/24 02:17:16;;;;;;;25.63;15.48;;;;;;;;;;5074369;28;20044;-83
2023/10/24 02:19:42;;;;;;;30.88;16.73;;;;;;;;;;5072617;28;20675;-84
2023/10/24 02:22:08;;;;;;;26.27;15.95;;;;;;;;;;5079916;28;20052;-85
2023/10/24 02:24:34;;;;;;;29.65;16.63;;;;;;;;;;5063857;28;20045;-84
2023/10/24 02:27:01;;;;;;;28.95;16.50;;;;;;;;;;5075121;28;20044;-84
2023/10/24 02:29:27;;;;;;;28.63;16.23;;;;;;;;;;5080305;28;20044;-84
2023/10/24 02:31:53;;;;;;;26.70;16.35;;;;;;;;;;5063125;28;20056;-83
2023/10/24 02:34:19;;;;;;;32.05;17.42;;;;;;;;;;5059942;28;20068;-83
2023/10/24 02:36:46;;;;;;;25.10;16.75;;;;;;;;;;5059767;28;20560;-83
2023/10/24 02:39:13;;;;;;;27.65;16.77;;;;;;;;;;5067108;28;20044;-84
2023/10/24 02:41:39;;;;;;;25.67;15.63;;;;;;;;;;5061588;28;20041;-83
2023/10/24 02:44:05;;;;;;;29.10;16.83;;;;;;;;;;5059981;28;20075;-84
2023/10/24 02:46:31;;;;;;;30.98;17.98;;;;;;;;;;5060048;28;20056;-84
2023/10/24 02:49:00;;;;;;;28.23;18.08;;;;;;;;;;5078088;28;20067;-84
2023/10/24 02:51:27;;;;;;;25.05;16.65;;;;;;;;;;5063768;28;20071;-85
2023/10/24 02:53:56;;;;;;;32.92;17.95;;;;;;;;;;5058412;28;20040;-83
2023/10/24 02:56:22;;;;;;;28.33;16.73;;;;;;;;;;5061568;28;20125;-83
2023/10/24 02:58:48;;;;;;;30.35;17.67;;;;;;;;;;5059249;28;20499;-83
2023/10/24 03:01:14;;;;;;;27.73;19.05;;;;;;;;;;5075419;28;20498;-84
2023/10/24 03:03:40;;;;;;;32.05;18.05;;;;;;;;;;5059881;28;20057;-84
2023/10/24 03:06:16;;;;;;;28.52;18.27;;;;;;;;;;5059998;28;20044;-84
2023/10/24 03:08:42;;;;;;;29.60;18.25;;;;;;;;;;5067726;28;20045;-84
2023/10/24 03:11:08;;;;;;;27.92;18.40;;;;;;;;;;5080410;28;20064;-84
2023/10/24 03:13:35;;;;;;;28.17;18.33;;;;;;;;;;5062657;28;20114;-84
2023/10/24 03:16:04;;;;;;;32.20;18.95;;;;;;;;;;5058588;28;20510;-83
2023/10/24 03:18:31;;;;;;;32.25;19.77;;;;;;;;;;5059907;28;20049;-84
2023/10/24 03:21:00;;;;;;;29.67;18.90;;;;;;;;;;5058279;28;20113;-83
2023/10/24 03:23:26;;;;;;;29.52;18.55;;;;;;;;;;5060218;28;20395;-83
2023/10/24 03:25:53;;;;;;;32.47;19.35;;;;;;;;;;5061002;28;20072;-83
2023/10/24 03:28:19;;;;;;;30.35;19.15;;;;;;;;;;5061669;28;20484;-82
2023/10/24 03:30:45;;;;;;;31.05;18.88;;;;;;;;;;5070094;28;20045;-83
2023/10/24 03:33:11;;;;;;;31.67;19.77;;;;;;;;;;5065572;28;20092;-82
2023/10/24 03:35:37;;;;;;;30.90;18.67;;;;;;;;;;5062866;28;20041;-82
2023/10/24 03:38:03;;;;;;;30.10;19.13;;;;;;;;;;5055615;28;20049;-83
2023/10/24 03:40:29;;;;;;;33.83;20.10;;;;;;;;;;5060468;28;20075;-83
2023/10/24 03:42:55;;;;;;;28.25;18.17;;;;;;;;;;5060262;28;20049;-84
2023/10/24 03:45:21;;;;;;;32.85;19.17;;;;;;;;;;5059275;28;20041;-83
2023/10/24 03:47:52;;;;;;;31.98;18.85;;;;;;;;;;5059586;28;20078;-83
2023/10/24 03:50:18;;;;;;;32.22;19.45;;;;;;;;;;5060705;28;20482;-82
2023/10/24 03:52:45;;;;;;;33.70;20.00;;;;;;;;;;5078752;28;20045;-84
2023/10/24 03:55:11;;;;;;;34.60;20.38;;;;;;;;;;5062071;28;20099;-84
2023/10/24 03:57:40;;;;;;;34.53;20.48;;;;;;;;;;5057404;28;20037;-84
2023/10/24 04:00:08;;;;;;;39.15;21.77;;;;;;;;;;5058163;28;20051;-83
2023/10/24 04:02:34;;;;;;;36.40;20.83;;;;;;;;;;5065110;28;20441;-83
2023/10/24 04:05:00;;;;;;;33.95;20.40;;;;;;;;;;5057160;28;20052;-83
2023/10/24 04:07:26;;;;;;;34.42;20.63;;;;;;;;;;5055837;28;20048;-82
2023/10/24 04:09:52;;;;;;;37.38;21.13;;;;;;;;;;5060646;28;20059;-84
2023/10/24 04:12:18;;;;;;;34.55;20.55;;;;;;;;;;5074453;28;20445;-83
2023/10/24 04:14:46;;;;;;;34.35;19.65;;;;;;;;;;5069026;28;20051;-83
2023/10/24 04:17:12;;;;;;;35.45;20.15;;;;;;;;;;5056891;28;20502;-83
2023/10/24 04:19:38;;;;;;;26.65;17.52;;;;;;;;;;5058413;28;20510;-83
2023/10/24 04:22:07;;;;;;;32.10;19.50;;;;;;;;;;5058076;28;20100;-83
2023/10/24 04:24:33;;;;;;;32.83;19.92;;;;;;;;;;5057671;28;20079;-83
2023/10/24 04:26:59;;;;;;;31.42;20.30;;;;;;;;;;5058525;28;20055;-83
2023/10/24 04:29:25;;;;;;;35.88;20.55;;;;;;;;;;5074469;28;20127;-84
2023/10/24 04:31:51;;;;;;;30.92;19.83;;;;;;;;;;5060287;28;20041;-83
2023/10/24 04:34:17;;;;;;;30.33;21.15;;;;;;;;;;5058739;28;20048;-84
2023/10/24 04:36:44;;;;;;;29.95;20.77;;;;;;;;;;5054299;28;20067;-83
2023/10/24 04:39:10;;;;;;;26.52;19.05;;;;;;;;;;5069535;28;20055;-83
2023/10/24 04:41:37;;;;;;;25.55;18.88;;;;;;;;;;5054569;28;20048;-83
2023/10/24 04:44:03;;;;;;;29.17;19.35;;;;;;;;;;5076286;28;20044;-83
2023/10/24 04:46:29;;;;;;;25.23;17.40;;;;;;;;;;5071602;28;20052;-84
2023/10/24 04:48:55;;;;;;;28.02;19.05;;;;;;;;;;5072650;28;20045;-84
2023/10/24 04:51:21;;;;;;;26.23;18.98;;;;;;;;;;5072466;28;20071;-83
2023/10/24 04:53:47;;;;;;;26.35;18.50;;;;;;;;;;5059319;28;20503;-83
2023/10/24 04:56:13;;;;;;;26.10;18.05;;;;;;;;;;5075948;28;20107;-84
2023/10/24 04:58:39;;;;;;;22.05;17.17;;;;;;;;;;5072344;28;20105;-84
2023/10/24 05:01:05;;;;;;;27.45;18.40;;;;;;;;;;5061711;28;20037;-84
2023/10/24 05:03:35;;;;;;;27.83;18.40;;;;;;;;;;5057338;28;20045;-84
2023/10/24 05:06:02;;;;;;;22.07;18.47;;;;;;;;;;5056771;28;20105;-84
2023/10/24 05:08:28;;;;;;;27.60;18.48;;;;;;;;;;5056850;28;20052;-84
2023/10/24 05:10:54;;;;;;;23.70;18.48;;;;;;;;;;5056552;28;20056;-84
2023/10/24 05:13:21;;;;;;;24.52;17.98;;;;;;;;;;5059616;28;20128;-84
2023/10/24 05:15:47;;;;;;;25.42;19.33;;;;;;;;;;5056702;28;20051;-84
2023/10/24 05:18:13;;;;;;;26.42;18.50;;;;;;;;;;5056918;28;20037;-83
2023/10/24 05:20:39;;;;;;;27.38;19.23;;;;;;;;;;5056775;28;20518;-84
2023/10/24 05:23:06;;;;;;;25.75;18.60;;;;;;;;;;5057704;28;20044;-83
2023/10/24 05:25:32;;;;;;;24.45;18.20;;;;;;;;;;5056186;28;20059;-84
2023/10/24 05:28:02;;;;;;;85.45;64.55;;;;;;;;;;5056770;28;20086;-84
2023/10/24 05:30:28;;;;;;;28.60;20.70;;;;;;;;;;5061246;28;20044;-84
2023/10/24 05:32:55;;;;;;;26.60;18.13;;;;;;;;;;5057784;28;20048;-83
2023/10/24 05:35:21;;;;;;;21.70;16.50;;;;;;;;;;5066167;28;20080;-84
2023/10/24 05:37:47;;;;;;;22.98;17.63;;;;;;;;;;5055160;28;20063;-83
2023/10/24 05:40:13;;;;;;;24.13;17.95;;;;;;;;;;5061948;28;20174;-84
2023/10/24 05:42:41;;;;;;;21.38;16.73;;;;;;;;;;5060200;28;20049;-84
2023/10/24 05:45:07;;;;;;;22.58;15.38;;;;;;;;;;5057241;28;20049;-84
2023/10/24 05:47:33;;;;;;;23.95;15.75;;;;;;;;;;5055968;28;20045;-83
2023/10/24 05:50:00;;;;;;;19.27;14.75;;;;;;;;;;5055771;28;20041;-83
2023/10/24 05:52:26;;;;;;;20.92;15.18;;;;;;;;;;5066207;28;20152;-83
2023/10/24 05:54:52;;;;;;;17.48;13.80;;;;;;;;;;5053961;28;20045;-84
2023/10/24 05:57:18;;;;;;;19.80;14.65;;;;;;;;;;5057159;28;20135;-84
2023/10/24 05:59:44;;;;;;;22.40;14.25;;;;;;;;;;5061275;28;20041;-83
2023/10/24 06:02:11;;;;;;;20.98;14.82;;;;;;;;;;5058716;28;20045;-83
2023/10/24 06:04:37;;;;;;;19.77;14.95;;;;;;;;;;5075398;28;20044;-84
2023/10/24 06:07:03;;;;;;;20.08;15.38;;;;;;;;;;5056821;28;20048;-84
2023/10/24 06:09:29;;;;;;;18.10;13.85;;;;;;;;;;5057983;28;20049;-84
2023/10/24 06:11:55;;;;;;;15.55;13.50;;;;;;;;;;5058883;28;20088;-84
2023/10/24 06:14:21;;;;;;;16.30;13.18;;;;;;;;;;5057491;28;20045;-84
2023/10/24 06:16:47;;;;;;;18.48;14.20;;;;;;;;;;5058225;28;20049;-84
2023/10/24 06:19:13;;;;;;;20.60;13.45;;;;;;;;;;5053592;28;20046;-84
2023/10/24 06:21:39;;;;;;;18.23;14.23;;;;;;;;;;5037912;28;20052;-83
2023/10/24 06:24:05;;;;;;;19.00;13.75;;;;;;;;;;5054804;28;20099;-84
2023/10/24 06:26:31;;;;;;;20.52;14.57;;;;;;;;;;5056529;28;20053;-84
2023/10/24 06:28:58;;;;;;;17.48;13.75;;;;;;;;;;5059838;28;20037;-83
2023/10/24 06:31:26;;;;;;;17.52;13.48;;;;;;;;;;5039959;28;20352;-83
2023/10/24 06:33:52;;;;;;;16.33;12.43;;;;;;;;;;5054829;28;20036;-83
2023/10/24 06:36:18;;;;;;;21.02;14.48;;;;;;;;;;5059997;28;20592;-83
2023/10/24 06:38:44;;;;;;;19.85;13.00;;;;;;;;;;5056484;28;20490;-83
2023/10/24 06:41:11;;;;;;;19.10;13.55;;;;;;;;;;5057004;28;20040;-85
2023/10/24 06:43:37;;;;;;;18.75;12.45;;;;;;;;;;5056867;28;20060;-84
2023/10/24 06:46:04;;;;;;;17.58;12.40;;;;;;;;;;5056253;28;20053;-85
2023/10/24 06:48:31;;;;;;;17.33;11.80;;;;;;;;;;5054657;28;20044;-85
2023/10/24 06:50:57;;;;;;;17.38;12.07;;;;;;;;;;5056509;28;20503;-84
2023/10/24 06:53:23;;;;;;;15.60;12.35;;;;;;;;;;5056510;28;20049;-84
2023/10/24 06:55:49;;;;;;;15.88;11.13;;;;;;;;;;5057831;28;20052;-85
2023/10/24 06:58:15;;;;;;;18.90;11.63;;;;;;;;;;5055322;28;20064;-84
2023/10/24 07:00:41;;;;;;;16.95;11.38;;;;;;;;;;5055581;28;20049;-84
2023/10/24 07:03:08;;;;;;;16.20;11.07;;;;;;;;;;5072480;28;20040;-84
2023/10/24 07:05:34;;;;;;;13.02;10.00;;;;;;;;;;5077614;28;20090;-84
2023/10/24 07:08:00;;;;;;;15.38;10.68;;;;;;;;;;5059902;28;20041;-84
2023/10/24 07:10:26;;;;;;;14.48;10.48;;;;;;;;;;5057949;28;20053;-84
2023/10/24 07:12:52;;;;;;;18.88;11.60;;;;;;;;;;5070985;28;20083;-84
2023/10/24 07:15:18;;;;;;;17.27;10.30;;;;;;;;;;5057791;28;20041;-84
2023/10/24 07:17:44;;;;;;;14.98;10.73;;;;;;;;;;5056368;28;20215;-84
2023/10/24 07:20:10;;;;;;;17.65;10.98;;;;;;;;;;5055980;28;20037;-84
2023/10/24 07:22:37;;;;;;;14.68;10.77;;;;;;;;;;5057290;28;20371;-84
2023/10/24 07:25:03;;;;;;;13.88;10.77;;;;;;;;;;5057351;28;20041;-84
2023/10/24 07:27:29;;;;;;;14.65;10.45;;;;;;;;;;5054140;28;20056;-84
2023/10/24 07:29:55;;;;;;;16.70;10.75;;;;;;;;;;5060847;28;20060;-84
2023/10/24 07:32:21;;;;;;;14.30;10.13;;;;;;;;;;5056970;28;20048;-84
2023/10/24 07:34:48;;;;;;;13.90;11.15;;;;;;;;;;5066059;28;20052;-84
2023/10/24 07:37:15;;;;;;;13.70;10.90;;;;;;;;;;5066206;28;20513;-84
2023/10/24 07:39:41;;;;;;;15.15;11.00;;;;;;;;;;5056316;28;20069;-84
2023/10/24 07:42:08;;;;;;;14.73;9.77;;;;;;;;;;5069623;28;20044;-84
2023/10/24 07:44:35;;;;;;;14.13;10.30;;;;;;;;;;5057433;28;20056;-84
2023/10/24 07:47:01;;;;;;;15.35;10.55;;;;;;;;;;5057400;28;20045;-85
2023/10/24 07:49:27;;;;;;;13.65;10.68;;;;;;;;;;5064239;28;20061;-84
2023/10/24 07:51:54;;;;;;;14.18;9.70;;;;;;;;;;5059602;28;20056;-83
2023/10/24 07:54:20;;;;;;;13.02;9.60;;;;;;;;;;5059262;28;20395;-84
2023/10/24 07:56:46;;;;;;;13.43;10.02;;;;;;;;;;5058734;28;20048;-83
2023/10/24 07:59:12;;;;;;;13.50;9.13;;;;;;;;;;5058450;28;20097;-83
2023/10/24 08:01:38;;;;;;;13.05;9.88;;;;;;;;;;5058370;28;20045;-84
2023/10/24 08:04:04;;;;;;;13.32;9.45;;;;;;;;;;5056588;28;20463;-84
2023/10/24 08:06:30;;;;;;;12.77;9.40;;;;;;;;;;5054152;28;20046;-83
2023/10/24 08:08:56;;;;;;;13.48;9.73;;;;;;;;;;5085494;28;20044;-83
2023/10/24 08:11:22;;;;;;;13.23;9.90;;;;;;;;;;5056980;28;20057;-83
2023/10/24 08:13:48;;;;;;;13.13;10.18;;;;;;;;;;5054378;28;20119;-84
2023/10/24 08:16:14;;;;;;;13.88;10.15;;;;;;;;;;5060955;28;20040;-83
2023/10/24 08:18:41;;;;;;;14.13;10.43;;;;;;;;;;5055247;28;20042;-84
2023/10/24 08:21:07;;;;;;;13.07;9.45;;;;;;;;;;5060374;28;20053;-84
2023/10/24 08:23:33;;;;;;;13.48;9.82;;;;;;;;;;5061884;28;20096;-83
2023/10/24 08:25:59;;;;;;;13.27;10.38;;;;;;;;;;5060746;28;20421;-83
2023/10/24 08:28:25;;;;;;;12.40;9.90;;;;;;;;;;5053526;28;20041;-83
2023/10/24 08:30:52;;;;;;;11.82;9.98;;;;;;;;;;5055932;28;20037;-83
2023/10/24 08:33:20;;;;;;;13.25;9.82;;;;;;;;;;5061815;28;20551;-83
2023/10/24 08:35:46;;;;;;;14.05;10.85;;;;;;;;;;5060501;28;20048;-83
2023/10/24 08:38:13;;;;;;;14.73;10.82;;;;;;;;;;5060272;28;20041;-83
2023/10/24 08:40:40;;;;;;;11.52;9.48;;;;;;;;;;5055423;28;20048;-83
2023/10/24 08:43:08;;;;;;;15.18;10.45;;;;;;;;;;5041400;28;20045;-84
2023/10/24 08:45:34;;;;;;;15.30;10.80;;;;;;;;;;5039727;28;20475;-83
2023/10/24 08:48:01;;;;;;;15.88;11.48;;;;;;;;;;5042459;28;20049;-84
2023/10/24 08:50:27;;;;;;;14.77;11.05;;;;;;;;;;5066440;28;20044;-84
2023/10/24 08:52:53;;;;;;;14.27;11.35;;;;;;;;;;5073161;28;20090;-84
2023/10/24 08:55:19;;;;;;;14.00;10.02;;;;;;;;;;5070996;28;20040;-83
2023/10/24 08:57:46;;;;;;;15.93;11.52;;;;;;;;;;5059651;28;20037;-83
2023/10/24 09:00:13;;;;;;;15.02;10.98;;;;;;;;;;5059085;28;20171;-83
2023/10/24 09:02:41;;;;;;;14.10;10.75;;;;;;;;;;5069336;28;20055;-84
2023/10/24 09:05:11;;;;;;;14.38;10.77;;;;;;;;;;5060010;28;20082;-84
2023/10/24 09:07:37;;;;;;;12.45;9.95;;;;;;;;;;5058486;28;20381;-83
2023/10/24 09:10:03;;;;;;;13.30;10.43;;;;;;;;;;5059782;28;20380;-83
2023/10/24 09:12:30;;;;;;;14.18;10.60;;;;;;;;;;5058332;28;20049;-83
2023/10/24 09:14:58;;;;;;;13.20;10.40;;;;;;;;;;5061198;28;20105;-83
2023/10/24 09:17:24;;;;;;;12.60;9.93;;;;;;;;;;5071326;28;20041;-83
2023/10/24 09:19:50;;;;;;;14.27;10.63;;;;;;;;;;5075222;28;20056;-83
2023/10/24 09:22:17;;;;;;;11.65;9.38;;;;;;;;;;5059560;28;20056;-83
2023/10/24 09:24:47;;;;;;;12.15;10.13;;;;;;;;;;5063021;28;20118;-83
2023/10/24 09:27:14;;;;;;;12.00;9.48;;;;;;;;;;5068635;28;20384;-83
2023/10/24 09:29:41;;;;;;;10.93;9.38;;;;;;;;;;5063546;28;20053;-83
2023/10/24 09:32:07;;;;;;;10.98;9.13;;;;;;;;;;5067556;28;20044;-83
2023/10/24 09:34:34;;;;;;;11.02;8.05;;;;;;;;;;5064611;28;20045;-83
2023/10/24 09:37:07;;;;;;;11.77;8.85;;;;;;;;;;5064651;28;20048;-85
2023/10/24 09:39:33;;;;;;;10.52;8.73;;;;;;;;;;5063912;28;20329;-83
2023/10/24 09:41:59;;;;;;;10.23;8.55;;;;;;;;;;5065805;28;20049;-83
2023/10/24 09:44:25;;;;;;;9.55;8.35;;;;;;;;;;5060186;28;20533;-83
2023/10/24 09:46:51;;;;;;;11.18;8.30;;;;;;;;;;5052138;28;20045;-83
2023/10/24 09:49:18;;;;;;;9.43;7.45;;;;;;;;;;5063729;28;20127;-83
2023/10/24 09:51:45;;;;;;;11.20;7.47;;;;;;;;;;5064123;28;20052;-83
2023/10/24 09:54:11;;;;;;;8.90;6.75;;;;;;;;;;5073842;28;20087;-83
2023/10/24 09:56:39;;;;;;;9.73;7.13;;;;;;;;;;5063680;28;20052;-83
2023/10/24 09:59:05;;;;;;;8.70;6.47;;;;;;;;;;5065758;28;20060;-83
2023/10/24 10:01:32;;;;;;;8.23;6.95;;;;;;;;;;5064814;28;20053;-82
2023/10/24 10:04:00;;;;;;;10.75;7.00;;;;;;;;;;5072367;28;20033;-83
2023/10/24 10:06:30;;;;;;;8.55;6.93;;;;;;;;;;5042562;28;20053;-82
2023/10/24 10:08:58;;;;;;;9.00;7.00;;;;;;;;;;5069365;28;20049;-83
2023/10/24 10:11:26;;;;;;;9.50;7.05;;;;;;;;;;5065168;28;20056;-82
2023/10/24 10:13:59;;;;;;;8.88;7.00;;;;;;;;;;5064318;28;20059;-83
2023/10/24 10:16:40;;;;;;;8.73;7.03;;;;;;;;;;5064684;28;20045;-83
2023/10/24 10:19:06;;;;;;;;;;;;;;;;;;5064208;28;20098;-82
2023/10/24 10:21:35;;;;;;;8.10;6.70;;;;;;;;;;5061070;28;20739;-84
2023/10/24 10:24:20;;;;;;;9.05;7.38;;;;;;;;;;5062335;28;20072;-83
2023/10/24 10:27:01;;;;;;;9.05;7.00;;;;;;;;;;5044281;28;20041;-84
2023/10/24 10:29:27;;;;;;;;;;;;;;;;;;5060910;28;20044;-83
2023/10/24 10:32:08;;;;;;;9.98;6.68;;;;;;;;;;5064980;28;19951;-83
2023/10/24 10:34:36;;;;;;;9.38;7.07;;;;;;;;;;5062887;28;20464;-82
2023/10/24 10:37:02;;;;;;;8.85;7.28;;;;;;;;;;5064283;28;20050;-82
2023/10/24 10:39:29;;;;;;;9.15;7.05;;;;;;;;;;5063858;28;20049;-83
2023/10/24 10:41:55;;;;;;;8.52;7.05;;;;;;;;;;5061776;28;20102;-82
2023/10/24 10:44:35;;;;;;;9.77;7.55;;;;;;;;;;5063460;28;20049;-82
2023/10/24 10:47:02;;;;;;;10.05;7.75;;;;;;;;;;5079371;28;20407;-82
2023/10/24 10:49:38;;;;;;;10.63;7.45;;;;;;;;;;5063579;28;20053;-82
2023/10/24 10:52:09;;;;;;;8.85;7.20;;;;;;;;;;5063272;28;20185;-82
2023/10/24 10:54:48;;;;;;;8.77;7.32;;;;;;;;;;5064409;28;20092;-82
2023/10/24 10:57:17;;;;;;;8.43;7.20;;;;;;;;;;5066598;28;20037;-82
2023/10/24 10:59:46;;;;;;;8.13;7.05;;;;;;;;;;5068698;28;20096;-83
2023/10/24 11:02:13;;;;;;;8.40;7.40;;;;;;;;;;5060510;28;20053;-82
2023/10/24 11:04:39;;;;;;;9.43;7.43;;;;;;;;;;5075302;28;20391;-82
2023/10/24 11:07:06;;;;;;;8.93;7.50;;;;;;;;;;5082242;28;20044;-82
2023/10/24 11:09:36;;;;;;;9.32;7.10;;;;;;;;;;5058864;28;20095;-82
2023/10/24 11:12:21;;;;;;;9.63;7.78;;;;;;;;;;5062050;28;20052;-82
2023/10/24 11:15:06;;;;;;;10.27;8.07;;;;;;;;;;5066386;28;20053;-82
2023/10/24 11:17:32;;;;;;;9.98;7.85;;;;;;;;;;5043241;28;20053;-82
2023/10/24 11:19:59;;;;;;;9.25;7.90;;;;;;;;;;5055905;28;20052;-82
2023/10/24 11:22:25;;;;;;;9.60;7.93;;;;;;;;;;5072199;28;20045;-81
2023/10/24 11:24:51;;;;;;;9.60;7.80;;;;;;;;;;5061822;28;20044;-82
2023/10/24 11:27:17;;;;;;;9.70;8.10;;;;;;;;;;5062047;28;20053;-82
2023/10/24 11:29:43;;;;;;;10.35;7.90;;;;;;;;;;5057883;28;20044;-82
2023/10/24 11:32:10;;;;;;;10.48;8.40;;;;;;;;;;5057916;28;20056;-83
2023/10/24 11:34:36;;;;;;;9.52;8.18;;;;;;;;;;5059649;28;20041;-82
2023/10/24 11:37:02;;;;;;;13.23;9.25;;;;;;;;;;5066692;28;20033;-82
2023/10/24 11:39:30;;;;;;;12.32;9.95;;;;;;;;;;5059564;28;20044;-82
2023/10/24 11:41:56;;;;;;;12.10;8.55;;;;;;;;;;5057123;28;20045;-83
2023/10/24 11:44:22;;;;;;;10.48;9.10;;;;;;;;;;5042136;28;20056;-82
2023/10/24 11:46:48;;;;;;;12.52;9.90;;;;;;;;;;5060280;28;20049;-82
2023/10/24 11:49:14;;;;;;;10.15;8.95;;;;;;;;;;5059487;28;20044;-82
2023/10/24 11:51:41;;;;;;;14.77;9.93;;;;;;;;;;5054287;28;20047;-82
2023/10/24 11:54:07;;;;;;;11.95;9.80;;;;;;;;;;5060306;28;20044;-82
2023/10/24 11:56:34;;;;;;;13.98;9.15;;;;;;;;;;5060852;28;20045;-83
2023/10/24 11:59:01;;;;;;;10.98;8.68;;;;;;;;;;5061892;28;20044;-83
2023/10/24 12:01:33;;;;;;;11.90;9.30;;;;;;;;;;5062079;28;20131;-81
2023/10/24 12:04:00;;;;;;;12.30;9.45;;;;;;;;;;5058821;28;20413;-82
2023/10/24 12:06:27;;;;;;;11.50;9.40;;;;;;;;;;5075424;28;20055;-82
2023/10/24 12:08:53;;;;;;;11.48;9.68;;;;;;;;;;5059799;28;20090;-82
2023/10/24 12:11:20;;;;;;;11.23;8.82;;;;;;;;;;5058682;28;20060;-83
2023/10/24 12:13:46;;;;;;;10.50;9.40;;;;;;;;;;5060781;28;20107;-83
2023/10/24 12:16:13;;;;;;;12.07;9.82;;;;;;;;;;5054374;28;20045;-83
2023/10/24 12:18:43;;;;;;;12.13;9.32;;;;;;;;;;5047248;28;20124;-83
2023/10/24 12:21:10;;;;;;;11.90;9.88;;;;;;;;;;5056613;28;20518;-83
2023/10/24 12:23:37;;;;;;;15.60;9.98;;;;;;;;;;5058983;28;20037;-83
2023/10/24 12:26:04;;;;;;;12.70;9.88;;;;;;;;;;5058215;28;20558;-83
2023/10/24 12:28:32;;;;;;;13.65;9.90;;;;;;;;;;5058349;28;20041;-82
2023/10/24 12:31:01;;;;;;;12.25;9.63;;;;;;;;;;5057559;28;20060;-83
2023/10/24 12:33:28;;;;;;;11.30;9.50;;;;;;;;;;5056207;28;20088;-82
2023/10/24 12:35:55;;;;;;;13.32;9.80;;;;;;;;;;5056446;28;20045;-82
2023/10/24 12:38:22;;;;;;;10.95;9.15;;;;;;;;;;5057749;28;20044;-83
2023/10/24 12:40:48;;;;;;;12.65;9.60;;;;;;;;;;5072490;28;20049;-82
2023/10/24 12:43:14;;;;;;;11.82;9.45;;;;;;;;;;5063820;28;20043;-82
2023/10/24 12:45:40;;;;;;;14.80;9.82;;;;;;;;;;5066299;28;20131;-83
2023/10/24 12:48:10;;;;;;;13.52;9.77;;;;;;;;;;5072328;28;20104;-83
2023/10/24 12:50:37;;;;;;;11.07;8.60;;;;;;;;;;5055174;28;20048;-83
2023/10/24 12:53:03;;;;;;;13.13;9.48;;;;;;;;;;5055848;28;20037;-83
2023/10/24 12:55:29;;;;;;;10.48;8.77;;;;;;;;;;5070588;28;20163;-83
2023/10/24 12:57:55;;;;;;;12.63;9.30;;;;;;;;;;5066835;28;20044;-84
2023/10/24 13:00:21;;;;;;;10.90;9.15;;;;;;;;;;5055444;28;20109;-83
2023/10/24 13:02:47;;;;;;;13.27;9.02;;;;;;;;;;5054892;28;20506;-83
2023/10/24 13:05:13;;;;;;;12.15;9.23;;;;;;;;;;5055115;28;20110;-84
2023/10/24 13:07:39;;;;;;;12.25;8.57;;;;;;;;;;5058895;28;20056;-84
2023/10/24 13:10:06;;;;;;;13.60;9.55;;;;;;;;;;5055739;28;20061;-84
2023/10/24 13:12:32;;;;;;;12.55;9.75;;;;;;;;;;5056418;28;20132;-84
2023/10/24 13:14:58;;;;;;;10.60;9.27;;;;;;;;;;5057242;28;20041;-84
2023/10/24 13:17:24;;;;;;;11.85;9.57;;;;;;;;;;5054499;28;20059;-84
2023/10/24 13:19:51;;;;;;;11.32;9.65;;;;;;;;;;5052034;28;20049;-84
2023/10/24 13:22:17;;;;;;;12.02;9.00;;;;;;;;;;5036117;28;20075;-84
2023/10/24 13:24:44;;;;;;;11.13;9.27;;;;;;;;;;5035508;28;20054;-83
2023/10/24 13:27:10;;;;;;;11.07;9.05;;;;;;;;;;5043740;28;20048;-84
2023/10/24 13:29:36;;;;;;;11.65;9.85;;;;;;;;;;5053000;28;20476;-84
2023/10/24 13:32:03;;;;;;;10.68;8.77;;;;;;;;;;5069813;28;20074;-83
2023/10/24 13:34:30;;;;;;;11.68;8.77;;;;;;;;;;5074602;28;20051;-84
2023/10/24 13:36:59;;;;;;;12.00;9.40;;;;;;;;;;5064585;28;20493;-83
2023/10/24 13:39:25;;;;;;;11.57;9.15;;;;;;;;;;5054343;28;20144;-83
2023/10/24 13:41:51;;;;;;;13.30;9.32;;;;;;;;;;5053612;28;20487;-84
2023/10/24 13:44:17;;;;;;;12.07;8.75;;;;;;;;;;5054599;28;20076;-84
2023/10/24 13:46:43;;;;;;;13.05;9.23;;;;;;;;;;5053608;28;20041;-84
2023/10/24 13:49:10;;;;;;;10.80;8.88;;;;;;;;;;5055898;28;20045;-84
2023/10/24 13:51:36;;;;;;;10.63;8.73;;;;;;;;;;5056654;28;20060;-83
2023/10/24 13:54:04;;;;;;;14.95;9.55;;;;;;;;;;5055171;28;20132;-84
2023/10/24 13:56:30;;;;;;;10.23;8.57;;;;;;;;;;5061445;28;20040;-83
2023/10/24 13:58:56;;;;;;;10.50;9.02;;;;;;;;;;5054581;28;20094;-83
2023/10/24 14:01:22;;;;;;;11.57;8.57;;;;;;;;;;5060002;28;20044;-83
2023/10/24 14:03:49;;;;;;;11.02;8.07;;;;;;;;;;5047948;28;20084;-83
2023/10/24 14:06:15;;;;;;;10.35;8.43;;;;;;;;;;5054295;28;20055;-83
2023/10/24 14:08:41;;;;;;;13.15;7.50;;;;;;;;;;5051321;28;20055;-84
2023/10/24 14:11:07;;;;;;;9.77;7.75;;;;;;;;;;5056070;28;20057;-83
2023/10/24 14:13:33;;;;;;;13.00;7.05;;;;;;;;;;5061241;28;20105;-83
2023/10/24 14:15:59;;;;;;;10.60;7.53;;;;;;;;;;5074613;28;20170;-83
2023/10/24 14:18:25;;;;;;;8.70;7.35;;;;;;;;;;5058443;28;20048;-83
2023/10/24 14:20:51;;;;;;;10.15;7.65;;;;;;;;;;5059469;28;20045;-83
2023/10/24 14:23:17;;;;;;;10.65;7.15;;;;;;;;;;5059634;28;20055;-83
2023/10/24 14:25:44;;;;;;;9.48;7.18;;;;;;;;;;5059697;28;20049;-83
2023/10/24 14:28:10;;;;;;;10.30;7.70;;;;;;;;;;5060065;28;20041;-83
2023/10/24 14:30:36;;;;;;;11.68;8.02;;;;;;;;;;5059507;28;20050;-83
2023/10/24 14:33:03;;;;;;;10.70;7.85;;;;;;;;;;5067798;28;20063;-83
2023/10/24 14:35:29;;;;;;;10.30;8.23;;;;;;;;;;5071928;28;20163;-83